sensor_id;sensor_type;location;lat;lon;timestamp;temperature;humidity
64654;DHT22;51065;48.884;12.598;2022-09-02T00:00:48;9.60;99.90
64654;DHT22;51065;48.884;12.598;2022-09-02T00:03:14;9.60;99.90
64654;DHT22;51065;48.884;12.598;2022-09-02T00:05:40;9.50;99.90
64654;DHT22;51065;48.884;12.598;2022-09-02T00:08:07;9.40;99.90
64654;DHT22;51065;48.884;12.598;2022-09-02T00:10:40;9.30;99.90
64654;DHT22;51065;48.884;12.598;2022-09-02T00:13:08;9.30;99.90
64654;DHT22;51065;48.884;12.598;2022-09-02T00:15:35;9.20;99.90
64654;DHT22;51065;48.884;12.598;2022-09-02T00:18:01;9.20;99.90
64654;DHT22;51065;48.884;12.598;2022-09-02T00:20:28;9.20;99.90
64654;DHT22;51065;48.884;12.598;2022-09-02T00:22:55;9.20;99.90
64654;DHT22;51065;48.884;12.598;2022-09-02T00:25:21;9.20;99.90
64654;DHT22;51065;48.884;12.598;2022-09-02T00:27:47;9.20;99.90
64654;DHT22;51065;48.884;12.598;2022-09-02T00:30:13;9.10;99.90
64654;DHT22;51065;48.884;12.598;2022-09-02T00:32:38;9.10;99.90
64654;DHT22;51065;48.884;12.598;2022-09-02T00:35:04;9.10;99.90
64654;DHT22;51065;48.884;12.598;2022-09-02T00:37:30;9.10;99.90
64654;DHT22;51065;48.884;12.598;2022-09-02T00:39:56;9.00;99.90
64654;DHT22;51065;48.884;12.598;2022-09-02T00:42:23;9.00;99.90
64654;DHT22;51065;48.884;12.598;2022-09-02T00:44:50;8.90;99.90
64654;DHT22;51065;48.884;12.598;2022-09-02T00:47:17;8.80;99.90
64654;DHT22;51065;48.884;12.598;2022-09-02T00:49:47;8.80;99.90
64654;DHT22;51065;48.884;12.598;2022-09-02T00:54:55;8.90;99.90
64654;DHT22;51065;48.884;12.598;2022-09-02T00:57:24;8.90;99.90
64654;DHT22;51065;48.884;12.598;2022-09-02T01:02:24;8.90;99.90
64654;DHT22;51065;48.884;12.598;2022-09-02T01:04:51;9.00;99.90
64654;DHT22;51065;48.884;12.598;2022-09-02T01:07:21;8.90;99.90
64654;DHT22;51065;48.884;12.598;2022-09-02T01:09:47;9.00;99.90
64654;DHT22;51065;48.884;12.598;2022-09-02T01:12:13;8.90;99.90
64654;DHT22;51065;48.884;12.598;2022-09-02T01:14:39;8.90;99.90
64654;DHT22;51065;48.884;12.598;2022-09-02T01:17:05;8.80;99.90
64654;DHT22;51065;48.884;12.598;2022-09-02T01:19:41;8.80;99.90
64654;DHT22;51065;48.884;12.598;2022-09-02T01:22:16;8.80;99.90
64654;DHT22;51065;48.884;12.598;2022-09-02T01:24:42;8.80;99.90
64654;DHT22;51065;48.884;12.598;2022-09-02T01:27:07;8.90;99.90
64654;DHT22;51065;48.884;12.598;2022-09-02T01:29:33;9.10;99.90
64654;DHT22;51065;48.884;12.598;2022-09-02T01:31:59;9.20;99.90
64654;DHT22;51065;48.884;12.598;2022-09-02T01:34:24;9.40;99.90
64654;DHT22;51065;48.884;12.598;2022-09-02T01:36:50;9.50;99.90
64654;DHT22;51065;48.884;12.598;2022-09-02T01:39:16;9.60;99.90
64654;DHT22;51065;48.884;12.598;2022-09-02T01:41:42;9.60;99.90
64654;DHT22;51065;48.884;12.598;2022-09-02T01:44:08;9.50;99.90
64654;DHT22;51065;48.884;12.598;2022-09-02T01:46:35;9.50;99.90
64654;DHT22;51065;48.884;12.598;2022-09-02T01:49:02;9.40;99.90
64654;DHT22;51065;48.884;12.598;2022-09-02T01:51:28;9.20;99.90
64654;DHT22;51065;48.884;12.598;2022-09-02T01:53:53;9.10;99.90
64654;DHT22;51065;48.884;12.598;2022-09-02T01:56:19;9.00;99.90
64654;DHT22;51065;48.884;12.598;2022-09-02T01:58:44;8.90;99.90
64654;DHT22;51065;48.884;12.598;2022-09-02T02:01:10;8.90;99.90
64654;DHT22;51065;48.884;12.598;2022-09-02T02:03:36;9.00;99.90
64654;DHT22;51065;48.884;12.598;2022-09-02T02:06:11;9.00;99.90
64654;DHT22;51065;48.884;12.598;2022-09-02T02:08:37;8.90;99.90
64654;DHT22;51065;48.884;12.598;2022-09-02T02:11:04;8.90;99.90
64654;DHT22;51065;48.884;12.598;2022-09-02T02:13:30;9.00;99.90
64654;DHT22;51065;48.884;12.598;2022-09-02T02:15:56;9.00;99.90
64654;DHT22;51065;48.884;12.598;2022-09-02T02:18:22;9.00;99.90
64654;DHT22;51065;48.884;12.598;2022-09-02T02:20:47;9.20;99.90
64654;DHT22;51065;48.884;12.598;2022-09-02T02:23:13;9.30;99.90
64654;DHT22;51065;48.884;12.598;2022-09-02T02:25:39;9.40;99.90
64654;DHT22;51065;48.884;12.598;2022-09-02T02:28:04;9.50;99.90
64654;DHT22;51065;48.884;12.598;2022-09-02T02:30:30;9.50;99.90
64654;DHT22;51065;48.884;12.598;2022-09-02T02:32:56;9.50;99.90
64654;DHT22;51065;48.884;12.598;2022-09-02T02:35:22;9.60;99.90
64654;DHT22;51065;48.884;12.598;2022-09-02T02:37:48;9.70;99.90
64654;DHT22;51065;48.884;12.598;2022-09-02T02:40:20;9.70;99.90
64654;DHT22;51065;48.884;12.598;2022-09-02T02:42:46;9.70;99.90
64654;DHT22;51065;48.884;12.598;2022-09-02T02:45:12;9.70;99.90
64654;DHT22;51065;48.884;12.598;2022-09-02T02:47:39;9.80;99.90
64654;DHT22;51065;48.884;12.598;2022-09-02T02:50:08;9.80;99.90
64654;DHT22;51065;48.884;12.598;2022-09-02T02:52:35;9.70;99.90
64654;DHT22;51065;48.884;12.598;2022-09-02T02:55:01;9.70;99.90
64654;DHT22;51065;48.884;12.598;2022-09-02T02:57:27;9.70;99.90
64654;DHT22;51065;48.884;12.598;2022-09-02T02:59:53;9.60;99.90
64654;DHT22;51065;48.884;12.598;2022-09-02T03:02:19;9.50;99.90
64654;DHT22;51065;48.884;12.598;2022-09-02T03:04:44;9.50;99.90
64654;DHT22;51065;48.884;12.598;2022-09-02T03:07:10;9.40;99.90
64654;DHT22;51065;48.884;12.598;2022-09-02T03:09:36;9.30;99.90
64654;DHT22;51065;48.884;12.598;2022-09-02T03:12:01;9.40;99.90
64654;DHT22;51065;48.884;12.598;2022-09-02T03:14:27;9.20;99.90
64654;DHT22;51065;48.884;12.598;2022-09-02T03:16:53;9.10;99.90
64654;DHT22;51065;48.884;12.598;2022-09-02T03:19:18;9.00;99.90
64654;DHT22;51065;48.884;12.598;2022-09-02T03:21:44;8.90;99.90
64654;DHT22;51065;48.884;12.598;2022-09-02T03:24:10;8.90;99.90
64654;DHT22;51065;48.884;12.598;2022-09-02T03:26:37;8.80;99.90
64654;DHT22;51065;48.884;12.598;2022-09-02T03:29:03;8.70;99.90
64654;DHT22;51065;48.884;12.598;2022-09-02T03:31:29;8.60;99.90
64654;DHT22;51065;48.884;12.598;2022-09-02T03:33:55;8.60;99.90
64654;DHT22;51065;48.884;12.598;2022-09-02T03:36:25;8.50;99.90
64654;DHT22;51065;48.884;12.598;2022-09-02T03:38:51;8.50;99.90
64654;DHT22;51065;48.884;12.598;2022-09-02T03:41:18;8.50;99.90
64654;DHT22;51065;48.884;12.598;2022-09-02T03:43:43;8.40;99.90
64654;DHT22;51065;48.884;12.598;2022-09-02T03:46:09;8.40;99.90
64654;DHT22;51065;48.884;12.598;2022-09-02T03:48:35;8.30;99.90
64654;DHT22;51065;48.884;12.598;2022-09-02T03:51:01;8.20;99.90
64654;DHT22;51065;48.884;12.598;2022-09-02T03:53:27;8.10;99.90
64654;DHT22;51065;48.884;12.598;2022-09-02T03:55:53;8.00;99.90
64654;DHT22;51065;48.884;12.598;2022-09-02T03:58:19;8.00;99.90
64654;DHT22;51065;48.884;12.598;2022-09-02T04:00:50;8.00;99.90
64654;DHT22;51065;48.884;12.598;2022-09-02T04:03:16;7.90;99.90
64654;DHT22;51065;48.884;12.598;2022-09-02T04:05:46;8.00;99.90
64654;DHT22;51065;48.884;12.598;2022-09-02T04:08:12;8.10;99.90
64654;DHT22;51065;48.884;12.598;2022-09-02T04:10:38;8.10;99.90
64654;DHT22;51065;48.884;12.598;2022-09-02T04:13:03;8.10;99.90
64654;DHT22;51065;48.884;12.598;2022-09-02T04:15:29;8.10;99.90
64654;DHT22;51065;48.884;12.598;2022-09-02T04:17:54;8.00;99.90
64654;DHT22;51065;48.884;12.598;2022-09-02T04:20:21;8.00;99.90
64654;DHT22;51065;48.884;12.598;2022-09-02T04:22:47;8.00;99.90
64654;DHT22;51065;48.884;12.598;2022-09-02T04:25:13;8.10;99.90
64654;DHT22;51065;48.884;12.598;2022-09-02T04:27:39;8.10;99.90
64654;DHT22;51065;48.884;12.598;2022-09-02T04:30:05;8.10;99.90
64654;DHT22;51065;48.884;12.598;2022-09-02T04:32:32;8.00;99.90
64654;DHT22;51065;48.884;12.598;2022-09-02T04:34:58;8.10;99.90
64654;DHT22;51065;48.884;12.598;2022-09-02T04:37:23;8.10;99.90
64654;DHT22;51065;48.884;12.598;2022-09-02T04:39:49;8.20;99.90
64654;DHT22;51065;48.884;12.598;2022-09-02T04:42:15;8.30;99.90
64654;DHT22;51065;48.884;12.598;2022-09-02T04:44:40;8.40;99.90
64654;DHT22;51065;48.884;12.598;2022-09-02T04:47:06;8.50;99.90
64654;DHT22;51065;48.884;12.598;2022-09-02T04:49:32;8.60;99.90
64654;DHT22;51065;48.884;12.598;2022-09-02T04:51:58;8.70;99.90
64654;DHT22;51065;48.884;12.598;2022-09-02T04:54:24;8.70;99.90
64654;DHT22;51065;48.884;12.598;2022-09-02T04:56:49;8.90;99.90
64654;DHT22;51065;48.884;12.598;2022-09-02T04:59:15;9.20;99.90
64654;DHT22;51065;48.884;12.598;2022-09-02T05:01:41;9.40;99.90
64654;DHT22;51065;48.884;12.598;2022-09-02T05:04:08;9.80;99.90
64654;DHT22;51065;48.884;12.598;2022-09-02T05:06:36;10.00;99.90
64654;DHT22;51065;48.884;12.598;2022-09-02T05:09:03;10.30;99.90
64654;DHT22;51065;48.884;12.598;2022-09-02T05:11:30;10.60;99.90
64654;DHT22;51065;48.884;12.598;2022-09-02T05:13:58;11.00;99.90
64654;DHT22;51065;48.884;12.598;2022-09-02T05:16:29;11.50;99.90
64654;DHT22;51065;48.884;12.598;2022-09-02T05:18:56;12.00;99.90
64654;DHT22;51065;48.884;12.598;2022-09-02T05:21:22;12.50;99.90
64654;DHT22;51065;48.884;12.598;2022-09-02T05:23:49;13.00;99.90
64654;DHT22;51065;48.884;12.598;2022-09-02T05:26:15;13.30;99.90
64654;DHT22;51065;48.884;12.598;2022-09-02T05:28:41;13.60;99.90
64654;DHT22;51065;48.884;12.598;2022-09-02T05:31:17;13.80;99.90
64654;DHT22;51065;48.884;12.598;2022-09-02T05:33:44;14.10;99.90
64654;DHT22;51065;48.884;12.598;2022-09-02T05:36:15;14.40;99.90
64654;DHT22;51065;48.884;12.598;2022-09-02T05:38:43;14.70;99.90
64654;DHT22;51065;48.884;12.598;2022-09-02T05:41:12;14.80;98.80
64654;DHT22;51065;48.884;12.598;2022-09-02T05:43:40;15.10;99.10
64654;DHT22;51065;48.884;12.598;2022-09-02T05:46:07;15.30;98.30
64654;DHT22;51065;48.884;12.598;2022-09-02T05:48:34;15.30;96.10
64654;DHT22;51065;48.884;12.598;2022-09-02T05:51:19;15.40;95.80
64654;DHT22;51065;48.884;12.598;2022-09-02T05:53:44;15.60;94.60
64654;DHT22;51065;48.884;12.598;2022-09-02T05:56:10;15.90;94.40
64654;DHT22;51065;48.884;12.598;2022-09-02T05:58:36;16.20;94.60
64654;DHT22;51065;48.884;12.598;2022-09-02T06:01:13;16.40;92.30
64654;DHT22;51065;48.884;12.598;2022-09-02T06:03:39;16.80;92.00
64654;DHT22;51065;48.884;12.598;2022-09-02T06:06:05;17.00;90.40
64654;DHT22;51065;48.884;12.598;2022-09-02T06:08:32;16.80;89.30
64654;DHT22;51065;48.884;12.598;2022-09-02T06:10:59;17.00;87.70
64654;DHT22;51065;48.884;12.598;2022-09-02T06:13:30;17.20;85.80
64654;DHT22;51065;48.884;12.598;2022-09-02T06:15:56;17.60;84.80
64654;DHT22;51065;48.884;12.598;2022-09-02T06:18:22;17.90;83.00
64654;DHT22;51065;48.884;12.598;2022-09-02T06:20:48;18.30;79.60
64654;DHT22;51065;48.884;12.598;2022-09-02T06:23:15;18.30;77.90
64654;DHT22;51065;48.884;12.598;2022-09-02T06:25:44;18.60;75.20
64654;DHT22;51065;48.884;12.598;2022-09-02T06:28:10;18.60;73.50
64654;DHT22;51065;48.884;12.598;2022-09-02T06:30:41;18.70;71.60
64654;DHT22;51065;48.884;12.598;2022-09-02T06:33:07;19.20;69.00
64654;DHT22;51065;48.884;12.598;2022-09-02T06:35:41;19.40;68.00
64654;DHT22;51065;48.884;12.598;2022-09-02T06:38:08;19.30;67.70
64654;DHT22;51065;48.884;12.598;2022-09-02T06:40:35;19.40;66.70
64654;DHT22;51065;48.884;12.598;2022-09-02T06:43:01;19.70;67.40
64654;DHT22;51065;48.884;12.598;2022-09-02T06:45:27;19.70;65.30
64654;DHT22;51065;48.884;12.598;2022-09-02T06:47:52;19.60;64.00
64654;DHT22;51065;48.884;12.598;2022-09-02T06:50:18;20.10;63.60
64654;DHT22;51065;48.884;12.598;2022-09-02T06:52:45;20.10;64.60
64654;DHT22;51065;48.884;12.598;2022-09-02T06:55:10;20.40;63.30
64654;DHT22;51065;48.884;12.598;2022-09-02T06:57:37;20.40;60.50
64654;DHT22;51065;48.884;12.598;2022-09-02T07:00:08;20.90;59.90
64654;DHT22;51065;48.884;12.598;2022-09-02T07:02:34;21.10;59.20
64654;DHT22;51065;48.884;12.598;2022-09-02T07:05:00;21.20;56.70
64654;DHT22;51065;48.884;12.598;2022-09-02T07:07:36;21.00;55.60
64654;DHT22;51065;48.884;12.598;2022-09-02T07:10:04;21.10;56.90
64654;DHT22;51065;48.884;12.598;2022-09-02T07:12:30;21.30;56.70
64654;DHT22;51065;48.884;12.598;2022-09-02T07:14:56;21.40;55.50
64654;DHT22;51065;48.884;12.598;2022-09-02T07:17:22;21.40;54.60
64654;DHT22;51065;48.884;12.598;2022-09-02T07:19:49;21.90;56.40
64654;DHT22;51065;48.884;12.598;2022-09-02T07:22:15;21.90;53.30
64654;DHT22;51065;48.884;12.598;2022-09-02T07:24:41;22.10;53.10
64654;DHT22;51065;48.884;12.598;2022-09-02T07:27:06;21.80;54.00
64654;DHT22;51065;48.884;12.598;2022-09-02T07:29:33;21.90;56.30
64654;DHT22;51065;48.884;12.598;2022-09-02T07:31:59;22.00;54.40
64654;DHT22;51065;48.884;12.598;2022-09-02T07:34:24;21.70;55.80
64654;DHT22;51065;48.884;12.598;2022-09-02T07:36:50;21.50;53.00
64654;DHT22;51065;48.884;12.598;2022-09-02T07:39:17;21.60;54.90
64654;DHT22;51065;48.884;12.598;2022-09-02T07:41:46;21.70;51.30
64654;DHT22;51065;48.884;12.598;2022-09-02T07:44:12;21.70;56.00
64654;DHT22;51065;48.884;12.598;2022-09-02T07:46:38;21.90;51.40
64654;DHT22;51065;48.884;12.598;2022-09-02T07:49:08;22.10;50.90
64654;DHT22;51065;48.884;12.598;2022-09-02T07:51:35;21.90;52.20
64654;DHT22;51065;48.884;12.598;2022-09-02T07:54:02;21.70;52.00
64654;DHT22;51065;48.884;12.598;2022-09-02T07:56:28;22.30;51.30
64654;DHT22;51065;48.884;12.598;2022-09-02T07:58:54;22.60;51.10
64654;DHT22;51065;48.884;12.598;2022-09-02T08:01:20;22.70;50.40
64654;DHT22;51065;48.884;12.598;2022-09-02T08:03:47;22.70;47.50
64654;DHT22;51065;48.884;12.598;2022-09-02T08:06:13;22.60;48.10
64654;DHT22;51065;48.884;12.598;2022-09-02T08:08:40;22.50;47.60
64654;DHT22;51065;48.884;12.598;2022-09-02T08:11:06;22.10;49.00
64654;DHT22;51065;48.884;12.598;2022-09-02T08:13:33;22.40;49.70
64654;DHT22;51065;48.884;12.598;2022-09-02T08:15:59;22.90;47.10
64654;DHT22;51065;48.884;12.598;2022-09-02T08:18:27;22.80;46.90
64654;DHT22;51065;48.884;12.598;2022-09-02T08:20:53;22.70;47.80
64654;DHT22;51065;48.884;12.598;2022-09-02T08:23:18;22.40;46.50
64654;DHT22;51065;48.884;12.598;2022-09-02T08:25:44;22.10;46.90
64654;DHT22;51065;48.884;12.598;2022-09-02T08:28:10;22.30;47.60
64654;DHT22;51065;48.884;12.598;2022-09-02T08:30:35;22.50;48.00
64654;DHT22;51065;48.884;12.598;2022-09-02T08:33:01;23.20;48.00
64654;DHT22;51065;48.884;12.598;2022-09-02T08:35:27;23.60;45.90
64654;DHT22;51065;48.884;12.598;2022-09-02T08:37:53;23.70;46.70
64654;DHT22;51065;48.884;12.598;2022-09-02T08:40:21;23.80;45.40
64654;DHT22;51065;48.884;12.598;2022-09-02T08:42:50;23.20;46.10
64654;DHT22;51065;48.884;12.598;2022-09-02T08:45:29;23.50;46.90
64654;DHT22;51065;48.884;12.598;2022-09-02T08:48:14;23.50;46.40
64654;DHT22;51065;48.884;12.598;2022-09-02T08:50:48;23.60;46.10
64654;DHT22;51065;48.884;12.598;2022-09-02T08:55:54;24.20;43.70
64654;DHT22;51065;48.884;12.598;2022-09-02T08:58:32;24.60;45.90
64654;DHT22;51065;48.884;12.598;2022-09-02T09:04:16;24.70;39.30
64654;DHT22;51065;48.884;12.598;2022-09-02T09:09:34;23.90;40.90
64654;DHT22;51065;48.884;12.598;2022-09-02T09:17:37;23.20;41.80
64654;DHT22;51065;48.884;12.598;2022-09-02T09:20:10;23.70;40.40
64654;DHT22;51065;48.884;12.598;2022-09-02T09:22:38;23.80;40.60
64654;DHT22;51065;48.884;12.598;2022-09-02T09:25:15;23.80;38.90
64654;DHT22;51065;48.884;12.598;2022-09-02T09:27:41;23.30;39.10
64654;DHT22;51065;48.884;12.598;2022-09-02T09:30:08;23.80;39.50
64654;DHT22;51065;48.884;12.598;2022-09-02T09:32:38;24.20;38.20
64654;DHT22;51065;48.884;12.598;2022-09-02T09:40:24;23.40;39.40
64654;DHT22;51065;48.884;12.598;2022-09-02T09:45:34;23.30;38.90
64654;DHT22;51065;48.884;12.598;2022-09-02T09:51:10;23.30;37.10
64654;DHT22;51065;48.884;12.598;2022-09-02T09:53:37;23.50;39.10
64654;DHT22;51065;48.884;12.598;2022-09-02T09:56:24;24.50;38.80
64654;DHT22;51065;48.884;12.598;2022-09-02T09:58:51;23.90;36.40
64654;DHT22;51065;48.884;12.598;2022-09-02T10:01:29;24.10;37.50
64654;DHT22;51065;48.884;12.598;2022-09-02T10:04:04;24.50;39.20
64654;DHT22;51065;48.884;12.598;2022-09-02T10:11:33;24.60;38.00
64654;DHT22;51065;48.884;12.598;2022-09-02T10:14:05;24.70;38.60
64654;DHT22;51065;48.884;12.598;2022-09-02T10:22:41;25.40;35.90
64654;DHT22;51065;48.884;12.598;2022-09-02T10:30:21;26.50;35.40
64654;DHT22;51065;48.884;12.598;2022-09-02T10:33:03;26.00;35.50
64654;DHT22;51065;48.884;12.598;2022-09-02T10:38:18;25.00;37.10
64654;DHT22;51065;48.884;12.598;2022-09-02T10:40:56;24.50;38.50
64654;DHT22;51065;48.884;12.598;2022-09-02T10:43:34;25.40;37.50
64654;DHT22;51065;48.884;12.598;2022-09-02T10:46:06;25.40;35.90
64654;DHT22;51065;48.884;12.598;2022-09-02T10:48:44;26.10;36.10
64654;DHT22;51065;48.884;12.598;2022-09-02T10:54:09;27.40;37.00
64654;DHT22;51065;48.884;12.598;2022-09-02T10:56:47;26.70;36.40
64654;DHT22;51065;48.884;12.598;2022-09-02T10:59:19;26.50;35.20
64654;DHT22;51065;48.884;12.598;2022-09-02T11:01:51;25.60;36.90
64654;DHT22;51065;48.884;12.598;2022-09-02T11:04:36;25.40;38.00
64654;DHT22;51065;48.884;12.598;2022-09-02T11:07:06;25.50;37.10
64654;DHT22;51065;48.884;12.598;2022-09-02T11:09:36;26.40;35.80
64654;DHT22;51065;48.884;12.598;2022-09-02T11:12:25;25.60;36.30
64654;DHT22;51065;48.884;12.598;2022-09-02T11:15:17;25.90;38.10
64654;DHT22;51065;48.884;12.598;2022-09-02T11:17:57;26.70;36.50
64654;DHT22;51065;48.884;12.598;2022-09-02T11:26:25;26.80;34.80
64654;DHT22;51065;48.884;12.598;2022-09-02T11:37:03;26.50;37.60
64654;DHT22;51065;48.884;12.598;2022-09-02T11:39:46;26.60;36.20
64654;DHT22;51065;48.884;12.598;2022-09-02T11:42:14;27.10;35.40
64654;DHT22;51065;48.884;12.598;2022-09-02T11:53:59;27.40;33.00
64654;DHT22;51065;48.884;12.598;2022-09-02T11:56:12;27.90;34.70
64654;DHT22;51065;48.884;12.598;2022-09-02T11:58:48;28.40;34.00
64654;DHT22;51065;48.884;12.598;2022-09-02T12:03:48;27.40;33.60
64654;DHT22;51065;48.884;12.598;2022-09-02T12:06:18;27.40;33.80
64654;DHT22;51065;48.884;12.598;2022-09-02T12:11:37;26.20;35.60
64654;DHT22;51065;48.884;12.598;2022-09-02T12:14:07;26.10;37.10
64654;DHT22;51065;48.884;12.598;2022-09-02T12:16:40;25.90;36.40
64654;DHT22;51065;48.884;12.598;2022-09-02T12:21:36;27.10;34.50
64654;DHT22;51065;48.884;12.598;2022-09-02T12:24:21;26.70;35.70
64654;DHT22;51065;48.884;12.598;2022-09-02T12:31:45;26.20;35.00
64654;DHT22;51065;48.884;12.598;2022-09-02T12:45:01;25.20;35.00
64654;DHT22;51065;48.884;12.598;2022-09-02T12:47:59;25.60;35.60
64654;DHT22;51065;48.884;12.598;2022-09-02T12:51:10;25.60;35.10
64654;DHT22;51065;48.884;12.598;2022-09-02T12:53:31;24.90;35.40
64654;DHT22;51065;48.884;12.598;2022-09-02T12:58:48;25.00;35.50
64654;DHT22;51065;48.884;12.598;2022-09-02T13:20:55;26.50;33.10
64654;DHT22;51065;48.884;12.598;2022-09-02T13:29:19;25.40;34.90
64654;DHT22;51065;48.884;12.598;2022-09-02T13:34:43;25.20;35.50
64654;DHT22;51065;48.884;12.598;2022-09-02T13:37:52;25.30;35.60
64654;DHT22;51065;48.884;12.598;2022-09-02T13:40:28;25.40;34.80
64654;DHT22;51065;48.884;12.598;2022-09-02T13:42:56;25.50;34.30
64654;DHT22;51065;48.884;12.598;2022-09-02T13:45:32;25.60;34.80
64654;DHT22;51065;48.884;12.598;2022-09-02T13:48:01;25.50;34.40
64654;DHT22;51065;48.884;12.598;2022-09-02T13:50:29;25.40;34.00
64654;DHT22;51065;48.884;12.598;2022-09-02T13:52:59;25.60;34.20
64654;DHT22;51065;48.884;12.598;2022-09-02T13:55:26;25.00;34.90
64654;DHT22;51065;48.884;12.598;2022-09-02T13:58:03;25.20;34.60
64654;DHT22;51065;48.884;12.598;2022-09-02T14:00:35;25.30;35.60
64654;DHT22;51065;48.884;12.598;2022-09-02T14:05:29;25.70;34.30
64654;DHT22;51065;48.884;12.598;2022-09-02T14:07:59;25.60;34.80
64654;DHT22;51065;48.884;12.598;2022-09-02T14:10:27;25.70;34.70
64654;DHT22;51065;48.884;12.598;2022-09-02T14:12:54;26.00;36.00
64654;DHT22;51065;48.884;12.598;2022-09-02T14:15:26;25.80;34.90
64654;DHT22;51065;48.884;12.598;2022-09-02T14:18:15;25.40;34.40
64654;DHT22;51065;48.884;12.598;2022-09-02T14:23:26;24.50;36.10
64654;DHT22;51065;48.884;12.598;2022-09-02T14:25:57;24.40;36.30
64654;DHT22;51065;48.884;12.598;2022-09-02T14:28:29;24.50;36.30
64654;DHT22;51065;48.884;12.598;2022-09-02T14:30:56;24.80;35.20
64654;DHT22;51065;48.884;12.598;2022-09-02T14:38:26;24.50;36.00
64654;DHT22;51065;48.884;12.598;2022-09-02T14:41:09;24.70;36.60
64654;DHT22;51065;48.884;12.598;2022-09-02T14:43:46;24.40;35.60
64654;DHT22;51065;48.884;12.598;2022-09-02T14:49:27;24.40;36.70
64654;DHT22;51065;48.884;12.598;2022-09-02T14:51:59;24.30;37.90
64654;DHT22;51065;48.884;12.598;2022-09-02T14:54:44;24.40;37.10
64654;DHT22;51065;48.884;12.598;2022-09-02T14:57:27;24.50;37.40
64654;DHT22;51065;48.884;12.598;2022-09-02T14:59:54;24.30;37.70
64654;DHT22;51065;48.884;12.598;2022-09-02T15:04:56;24.20;39.10
64654;DHT22;51065;48.884;12.598;2022-09-02T15:07:23;24.00;38.20
64654;DHT22;51065;48.884;12.598;2022-09-02T15:09:50;24.00;38.50
64654;DHT22;51065;48.884;12.598;2022-09-02T15:12:20;24.00;38.90
64654;DHT22;51065;48.884;12.598;2022-09-02T15:14:52;24.00;38.20
64654;DHT22;51065;48.884;12.598;2022-09-02T15:17:19;23.90;38.00
64654;DHT22;51065;48.884;12.598;2022-09-02T15:19:45;23.90;37.80
64654;DHT22;51065;48.884;12.598;2022-09-02T15:22:11;23.50;37.80
64654;DHT22;51065;48.884;12.598;2022-09-02T15:24:37;23.30;39.40
64654;DHT22;51065;48.884;12.598;2022-09-02T15:27:03;23.50;39.30
64654;DHT22;51065;48.884;12.598;2022-09-02T15:29:29;23.50;39.00
64654;DHT22;51065;48.884;12.598;2022-09-02T15:31:55;23.20;39.30
64654;DHT22;51065;48.884;12.598;2022-09-02T15:34:21;23.00;40.30
64654;DHT22;51065;48.884;12.598;2022-09-02T15:36:47;22.90;41.00
64654;DHT22;51065;48.884;12.598;2022-09-02T15:39:13;22.80;40.80
64654;DHT22;51065;48.884;12.598;2022-09-02T15:41:39;22.60;42.00
64654;DHT22;51065;48.884;12.598;2022-09-02T15:44:07;22.50;41.80
64654;DHT22;51065;48.884;12.598;2022-09-02T15:46:33;22.20;42.60
64654;DHT22;51065;48.884;12.598;2022-09-02T15:49:03;22.00;43.90
64654;DHT22;51065;48.884;12.598;2022-09-02T15:51:29;21.70;43.50
64654;DHT22;51065;48.884;12.598;2022-09-02T15:54:15;21.50;44.10
64654;DHT22;51065;48.884;12.598;2022-09-02T15:56:43;21.40;45.30
64654;DHT22;51065;48.884;12.598;2022-09-02T15:59:16;21.20;46.30
64654;DHT22;51065;48.884;12.598;2022-09-02T16:01:45;21.20;45.40
64654;DHT22;51065;48.884;12.598;2022-09-02T16:04:12;21.10;46.80
64654;DHT22;51065;48.884;12.598;2022-09-02T16:06:39;21.00;46.30
64654;DHT22;51065;48.884;12.598;2022-09-02T16:09:07;21.00;46.60
64654;DHT22;51065;48.884;12.598;2022-09-02T16:11:32;21.00;46.90
64654;DHT22;51065;48.884;12.598;2022-09-02T16:14:01;20.90;46.70
64654;DHT22;51065;48.884;12.598;2022-09-02T16:16:26;20.90;46.60
64654;DHT22;51065;48.884;12.598;2022-09-02T16:18:53;20.90;46.20
64654;DHT22;51065;48.884;12.598;2022-09-02T16:21:19;20.70;47.20
64654;DHT22;51065;48.884;12.598;2022-09-02T16:23:45;20.60;47.10
64654;DHT22;51065;48.884;12.598;2022-09-02T16:28:38;20.60;47.40
64654;DHT22;51065;48.884;12.598;2022-09-02T16:31:06;20.60;48.10
64654;DHT22;51065;48.884;12.598;2022-09-02T16:33:32;20.50;48.80
64654;DHT22;51065;48.884;12.598;2022-09-02T16:35:58;20.50;48.30
64654;DHT22;51065;48.884;12.598;2022-09-02T16:38:24;20.50;48.80
64654;DHT22;51065;48.884;12.598;2022-09-02T16:40:54;20.40;50.50
64654;DHT22;51065;48.884;12.598;2022-09-02T16:43:20;20.40;48.70
64654;DHT22;51065;48.884;12.598;2022-09-02T16:45:47;20.40;48.80
64654;DHT22;51065;48.884;12.598;2022-09-02T16:48:13;20.30;49.20
64654;DHT22;51065;48.884;12.598;2022-09-02T16:50:39;20.30;48.50
64654;DHT22;51065;48.884;12.598;2022-09-02T16:53:05;20.20;49.10
64654;DHT22;51065;48.884;12.598;2022-09-02T16:55:31;20.00;49.60
64654;DHT22;51065;48.884;12.598;2022-09-02T16:57:57;20.00;49.50
64654;DHT22;51065;48.884;12.598;2022-09-02T17:00:25;19.90;50.00
64654;DHT22;51065;48.884;12.598;2022-09-02T17:02:51;19.80;50.40
64654;DHT22;51065;48.884;12.598;2022-09-02T17:05:17;19.80;50.40
64654;DHT22;51065;48.884;12.598;2022-09-02T17:07:43;19.80;50.20
64654;DHT22;51065;48.884;12.598;2022-09-02T17:10:09;19.70;51.00
64654;DHT22;51065;48.884;12.598;2022-09-02T17:12:35;19.70;51.10
64654;DHT22;51065;48.884;12.598;2022-09-02T17:15:01;19.60;51.00
64654;DHT22;51065;48.884;12.598;2022-09-02T17:17:26;19.60;51.80
64654;DHT22;51065;48.884;12.598;2022-09-02T17:19:52;19.50;51.40
64654;DHT22;51065;48.884;12.598;2022-09-02T17:22:17;19.30;52.40
64654;DHT22;51065;48.884;12.598;2022-09-02T17:24:43;19.30;51.90
64654;DHT22;51065;48.884;12.598;2022-09-02T17:27:09;19.30;52.10
64654;DHT22;51065;48.884;12.598;2022-09-02T17:29:34;19.10;52.30
64654;DHT22;51065;48.884;12.598;2022-09-02T17:32:00;19.00;53.10
64654;DHT22;51065;48.884;12.598;2022-09-02T17:34:26;19.00;53.40
64654;DHT22;51065;48.884;12.598;2022-09-02T17:36:51;18.80;53.90
64654;DHT22;51065;48.884;12.598;2022-09-02T17:39:19;18.70;55.30
64654;DHT22;51065;48.884;12.598;2022-09-02T17:41:45;18.60;55.00
64654;DHT22;51065;48.884;12.598;2022-09-02T17:44:23;18.40;55.50
64654;DHT22;51065;48.884;12.598;2022-09-02T17:46:50;18.30;56.40
64654;DHT22;51065;48.884;12.598;2022-09-02T17:49:16;18.20;56.10
64654;DHT22;51065;48.884;12.598;2022-09-02T17:51:42;18.30;56.30
64654;DHT22;51065;48.884;12.598;2022-09-02T17:54:09;18.10;57.20
64654;DHT22;51065;48.884;12.598;2022-09-02T18:06:06;17.60;59.20